sensor_id;sensor_type;location;lat;lon;timestamp;temperature;humidity
949;DHT22;461;51.436;7.312;2022-12-29T00:01:45;11.40;99.90
949;DHT22;461;51.436;7.312;2022-12-29T00:04:13;11.50;99.90
949;DHT22;461;51.436;7.312;2022-12-29T00:06:39;11.40;99.90
949;DHT22;461;51.436;7.312;2022-12-29T00:09:05;11.50;99.90
949;DHT22;461;51.436;7.312;2022-12-29T00:11:31;11.60;99.90
949;DHT22;461;51.436;7.312;2022-12-29T00:13:57;11.60;99.90
949;DHT22;461;51.436;7.312;2022-12-29T00:16:43;11.60;99.90
949;DHT22;461;51.436;7.312;2022-12-29T00:19:10;11.60;99.90
949;DHT22;461;51.436;7.312;2022-12-29T00:21:59;11.60;99.90
949;DHT22;461;51.436;7.312;2022-12-29T00:24:46;11.50;99.90
949;DHT22;461;51.436;7.312;2022-12-29T00:27:32;11.60;99.90
949;DHT22;461;51.436;7.312;2022-12-29T00:30:21;11.50;99.90
949;DHT22;461;51.436;7.312;2022-12-29T00:33:12;11.50;99.90
949;DHT22;461;51.436;7.312;2022-12-29T00:39:04;11.40;99.90
949;DHT22;461;51.436;7.312;2022-12-29T00:41:50;11.30;99.90
949;DHT22;461;51.436;7.312;2022-12-29T00:44:34;11.30;99.90
949;DHT22;461;51.436;7.312;2022-12-29T00:47:00;11.40;99.90
949;DHT22;461;51.436;7.312;2022-12-29T00:49:46;11.40;99.90
949;DHT22;461;51.436;7.312;2022-12-29T00:52:13;11.50;99.90
949;DHT22;461;51.436;7.312;2022-12-29T00:54:40;11.60;99.90
949;DHT22;461;51.436;7.312;2022-12-29T00:57:08;11.50;99.90
949;DHT22;461;51.436;7.312;2022-12-29T00:59:41;11.60;99.90
949;DHT22;461;51.436;7.312;2022-12-29T01:02:10;11.70;99.90
949;DHT22;461;51.436;7.312;2022-12-29T01:04:37;11.70;99.90
949;DHT22;461;51.436;7.312;2022-12-29T01:07:03;11.70;99.90
949;DHT22;461;51.436;7.312;2022-12-29T01:09:29;11.70;99.90
949;DHT22;461;51.436;7.312;2022-12-29T01:12:15;11.60;99.90
949;DHT22;461;51.436;7.312;2022-12-29T01:14:40;11.60;99.90
949;DHT22;461;51.436;7.312;2022-12-29T01:17:06;11.60;99.90
949;DHT22;461;51.436;7.312;2022-12-29T01:19:32;11.50;99.90
949;DHT22;461;51.436;7.312;2022-12-29T01:22:11;11.50;99.90
949;DHT22;461;51.436;7.312;2022-12-29T01:24:37;11.60;99.90
949;DHT22;461;51.436;7.312;2022-12-29T01:27:03;11.50;99.90
949;DHT22;461;51.436;7.312;2022-12-29T01:29:29;11.60;99.90
949;DHT22;461;51.436;7.312;2022-12-29T01:31:54;11.60;99.90
949;DHT22;461;51.436;7.312;2022-12-29T01:34:20;11.70;99.90
949;DHT22;461;51.436;7.312;2022-12-29T01:36:46;11.70;99.90
949;DHT22;461;51.436;7.312;2022-12-29T01:39:12;11.80;99.90
949;DHT22;461;51.436;7.312;2022-12-29T01:41:38;11.70;99.90
949;DHT22;461;51.436;7.312;2022-12-29T01:47:42;11.80;99.90
949;DHT22;461;51.436;7.312;2022-12-29T01:50:18;11.90;99.90
949;DHT22;461;51.436;7.312;2022-12-29T01:52:59;11.80;99.90
949;DHT22;461;51.436;7.312;2022-12-29T01:55:27;11.80;99.90
949;DHT22;461;51.436;7.312;2022-12-29T01:57:55;12.00;99.90
949;DHT22;461;51.436;7.312;2022-12-29T02:00:22;12.00;99.90
949;DHT22;461;51.436;7.312;2022-12-29T02:02:51;12.00;99.90
949;DHT22;461;51.436;7.312;2022-12-29T02:07:55;11.90;99.90
949;DHT22;461;51.436;7.312;2022-12-29T02:10:23;11.90;99.90
949;DHT22;461;51.436;7.312;2022-12-29T02:12:50;12.00;99.90
949;DHT22;461;51.436;7.312;2022-12-29T02:15:16;12.00;99.90
949;DHT22;461;51.436;7.312;2022-12-29T02:20:35;12.20;99.90
949;DHT22;461;51.436;7.312;2022-12-29T02:31:17;12.10;99.90
949;DHT22;461;51.436;7.312;2022-12-29T02:37:14;12.20;99.90
949;DHT22;461;51.436;7.312;2022-12-29T02:45:43;12.40;99.90
949;DHT22;461;51.436;7.312;2022-12-29T02:48:16;12.40;99.90
949;DHT22;461;51.436;7.312;2022-12-29T02:53:26;12.40;99.90
949;DHT22;461;51.436;7.312;2022-12-29T02:56:12;12.50;99.90
949;DHT22;461;51.436;7.312;2022-12-29T02:58:38;12.60;99.90
949;DHT22;461;51.436;7.312;2022-12-29T03:01:24;12.60;99.90
949;DHT22;461;51.436;7.312;2022-12-29T03:06:58;12.70;99.90
949;DHT22;461;51.436;7.312;2022-12-29T03:09:36;12.70;99.90
949;DHT22;461;51.436;7.312;2022-12-29T03:12:30;12.70;99.90
949;DHT22;461;51.436;7.312;2022-12-29T03:15:31;12.80;99.90
949;DHT22;461;51.436;7.312;2022-12-29T03:18:25;12.80;99.90
949;DHT22;461;51.436;7.312;2022-12-29T03:21:18;12.90;99.90
949;DHT22;461;51.436;7.312;2022-12-29T03:23:48;12.90;99.90
949;DHT22;461;51.436;7.312;2022-12-29T03:26:17;13.00;99.90
949;DHT22;461;51.436;7.312;2022-12-29T03:28:53;12.90;99.90
949;DHT22;461;51.436;7.312;2022-12-29T03:31:20;12.90;99.90
949;DHT22;461;51.436;7.312;2022-12-29T03:33:47;12.90;99.90
949;DHT22;461;51.436;7.312;2022-12-29T03:36:20;12.60;99.90
949;DHT22;461;51.436;7.312;2022-12-29T03:38:55;12.70;99.90
949;DHT22;461;51.436;7.312;2022-12-29T03:41:26;12.60;99.90
949;DHT22;461;51.436;7.312;2022-12-29T03:43:54;12.60;99.90
949;DHT22;461;51.436;7.312;2022-12-29T03:46:19;12.70;99.90
949;DHT22;461;51.436;7.312;2022-12-29T03:48:45;12.70;99.90
949;DHT22;461;51.436;7.312;2022-12-29T03:51:11;12.60;99.90
949;DHT22;461;51.436;7.312;2022-12-29T03:53:37;12.40;99.90
949;DHT22;461;51.436;7.312;2022-12-29T04:15:31;12.30;99.90
949;DHT22;461;51.436;7.312;2022-12-29T04:17:58;11.80;99.90
949;DHT22;461;51.436;7.312;2022-12-29T04:20:24;11.70;99.90
949;DHT22;461;51.436;7.312;2022-12-29T04:23:08;11.80;99.90
949;DHT22;461;51.436;7.312;2022-12-29T04:25:34;11.90;99.90
949;DHT22;461;51.436;7.312;2022-12-29T04:28:00;12.10;99.90
949;DHT22;461;51.436;7.312;2022-12-29T04:30:26;12.00;99.90
949;DHT22;461;51.436;7.312;2022-12-29T04:32:52;12.10;99.90
949;DHT22;461;51.436;7.312;2022-12-29T04:35:18;12.20;99.90
949;DHT22;461;51.436;7.312;2022-12-29T04:37:43;12.30;99.90
949;DHT22;461;51.436;7.312;2022-12-29T04:40:09;12.30;99.90
949;DHT22;461;51.436;7.312;2022-12-29T04:42:36;12.30;99.90
949;DHT22;461;51.436;7.312;2022-12-29T04:45:02;12.50;99.90
949;DHT22;461;51.436;7.312;2022-12-29T04:47:27;12.40;99.90
949;DHT22;461;51.436;7.312;2022-12-29T04:49:53;12.50;99.90
949;DHT22;461;51.436;7.312;2022-12-29T04:52:19;12.60;99.90
949;DHT22;461;51.436;7.312;2022-12-29T04:54:45;12.70;99.90
949;DHT22;461;51.436;7.312;2022-12-29T04:57:11;12.70;99.90
949;DHT22;461;51.436;7.312;2022-12-29T04:59:36;12.80;99.90
949;DHT22;461;51.436;7.312;2022-12-29T05:02:02;12.90;99.90
949;DHT22;461;51.436;7.312;2022-12-29T05:04:28;12.90;99.90
949;DHT22;461;51.436;7.312;2022-12-29T05:06:54;13.00;99.90
949;DHT22;461;51.436;7.312;2022-12-29T05:09:20;13.00;99.90
949;DHT22;461;51.436;7.312;2022-12-29T05:11:45;13.00;99.90
949;DHT22;461;51.436;7.312;2022-12-29T05:14:14;13.10;99.90
949;DHT22;461;51.436;7.312;2022-12-29T05:16:40;13.10;99.90
949;DHT22;461;51.436;7.312;2022-12-29T05:19:06;13.20;99.90
949;DHT22;461;51.436;7.312;2022-12-29T05:21:31;13.20;99.90
949;DHT22;461;51.436;7.312;2022-12-29T05:23:57;13.20;99.90
949;DHT22;461;51.436;7.312;2022-12-29T05:26:23;13.30;99.90
949;DHT22;461;51.436;7.312;2022-12-29T05:28:49;13.40;99.90
949;DHT22;461;51.436;7.312;2022-12-29T05:31:15;13.40;99.90
949;DHT22;461;51.436;7.312;2022-12-29T05:33:40;13.40;99.90
949;DHT22;461;51.436;7.312;2022-12-29T05:36:08;13.40;99.90
949;DHT22;461;51.436;7.312;2022-12-29T05:38:34;13.50;99.90
949;DHT22;461;51.436;7.312;2022-12-29T05:41:00;13.60;99.90
949;DHT22;461;51.436;7.312;2022-12-29T05:43:26;13.70;99.90
949;DHT22;461;51.436;7.312;2022-12-29T05:45:52;13.50;99.90
949;DHT22;461;51.436;7.312;2022-12-29T05:48:18;13.60;99.90
949;DHT22;461;51.436;7.312;2022-12-29T05:50:47;13.60;99.90
949;DHT22;461;51.436;7.312;2022-12-29T05:53:13;13.60;99.90
949;DHT22;461;51.436;7.312;2022-12-29T05:55:39;13.60;99.90
949;DHT22;461;51.436;7.312;2022-12-29T05:58:05;13.60;99.90
949;DHT22;461;51.436;7.312;2022-12-29T06:00:31;13.70;99.90
949;DHT22;461;51.436;7.312;2022-12-29T06:02:57;13.60;99.90
949;DHT22;461;51.436;7.312;2022-12-29T06:05:22;13.70;99.90
949;DHT22;461;51.436;7.312;2022-12-29T06:07:48;13.60;99.90
949;DHT22;461;51.436;7.312;2022-12-29T06:10:14;13.50;99.90
949;DHT22;461;51.436;7.312;2022-12-29T06:12:40;13.60;99.90
949;DHT22;461;51.436;7.312;2022-12-29T06:15:06;13.60;99.90
949;DHT22;461;51.436;7.312;2022-12-29T06:17:32;13.60;99.90
949;DHT22;461;51.436;7.312;2022-12-29T06:19:58;13.60;99.90
949;DHT22;461;51.436;7.312;2022-12-29T06:22:24;13.60;99.90
949;DHT22;461;51.436;7.312;2022-12-29T06:24:50;13.60;99.90
949;DHT22;461;51.436;7.312;2022-12-29T06:27:15;13.50;99.90
949;DHT22;461;51.436;7.312;2022-12-29T06:29:41;13.60;99.90
949;DHT22;461;51.436;7.312;2022-12-29T06:32:08;13.60;99.90
949;DHT22;461;51.436;7.312;2022-12-29T06:34:34;13.60;99.90
949;DHT22;461;51.436;7.312;2022-12-29T06:37:00;13.50;99.90
949;DHT22;461;51.436;7.312;2022-12-29T06:39:27;13.60;99.90
949;DHT22;461;51.436;7.312;2022-12-29T06:41:53;13.70;99.90
949;DHT22;461;51.436;7.312;2022-12-29T06:59:03;13.60;99.90
949;DHT22;461;51.436;7.312;2022-12-29T07:01:29;13.80;99.90
949;DHT22;461;51.436;7.312;2022-12-29T07:03:55;13.80;99.90
949;DHT22;461;51.436;7.312;2022-12-29T07:06:20;13.70;99.90
949;DHT22;461;51.436;7.312;2022-12-29T07:11:12;13.80;99.90
949;DHT22;461;51.436;7.312;2022-12-29T07:13:38;13.80;99.90
949;DHT22;461;51.436;7.312;2022-12-29T07:16:06;13.60;99.90
949;DHT22;461;51.436;7.312;2022-12-29T07:18:32;13.50;99.90
949;DHT22;461;51.436;7.312;2022-12-29T07:20:58;13.60;99.90
949;DHT22;461;51.436;7.312;2022-12-29T07:23:24;13.50;99.90
949;DHT22;461;51.436;7.312;2022-12-29T07:25:49;13.50;99.90
949;DHT22;461;51.436;7.312;2022-12-29T07:28:15;13.40;99.90
949;DHT22;461;51.436;7.312;2022-12-29T07:30:46;13.30;99.90
949;DHT22;461;51.436;7.312;2022-12-29T07:33:12;13.60;99.90
949;DHT22;461;51.436;7.312;2022-12-29T07:35:37;13.40;99.90
949;DHT22;461;51.436;7.312;2022-12-29T07:38:03;13.30;99.90
949;DHT22;461;51.436;7.312;2022-12-29T07:40:29;13.30;99.90
949;DHT22;461;51.436;7.312;2022-12-29T07:42:55;13.20;99.90
949;DHT22;461;51.436;7.312;2022-12-29T07:45:20;13.20;99.90
949;DHT22;461;51.436;7.312;2022-12-29T07:47:50;13.20;99.90
949;DHT22;461;51.436;7.312;2022-12-29T07:50:16;13.20;99.90
949;DHT22;461;51.436;7.312;2022-12-29T07:52:41;13.30;99.90
949;DHT22;461;51.436;7.312;2022-12-29T07:55:08;13.20;99.90
949;DHT22;461;51.436;7.312;2022-12-29T07:57:34;13.20;99.90
949;DHT22;461;51.436;7.312;2022-12-29T08:00:00;13.20;99.90
949;DHT22;461;51.436;7.312;2022-12-29T08:02:25;13.20;99.90
949;DHT22;461;51.436;7.312;2022-12-29T08:04:51;13.30;99.90
949;DHT22;461;51.436;7.312;2022-12-29T08:07:17;13.40;99.90
949;DHT22;461;51.436;7.312;2022-12-29T08:09:43;13.30;99.90
949;DHT22;461;51.436;7.312;2022-12-29T08:12:10;13.40;99.90
949;DHT22;461;51.436;7.312;2022-12-29T08:14:40;13.30;99.90
949;DHT22;461;51.436;7.312;2022-12-29T08:17:05;13.40;99.90
949;DHT22;461;51.436;7.312;2022-12-29T08:19:31;13.40;99.90
949;DHT22;461;51.436;7.312;2022-12-29T08:21:57;13.40;99.90
949;DHT22;461;51.436;7.312;2022-12-29T08:24:23;13.50;99.90
949;DHT22;461;51.436;7.312;2022-12-29T08:26:48;13.30;99.90
949;DHT22;461;51.436;7.312;2022-12-29T08:29:14;13.30;99.90
949;DHT22;461;51.436;7.312;2022-12-29T08:31:40;13.30;99.90
949;DHT22;461;51.436;7.312;2022-12-29T08:34:05;13.30;99.90
949;DHT22;461;51.436;7.312;2022-12-29T08:36:31;13.30;99.90
949;DHT22;461;51.436;7.312;2022-12-29T08:38:57;13.30;99.90
949;DHT22;461;51.436;7.312;2022-12-29T08:41:23;13.40;99.90
949;DHT22;461;51.436;7.312;2022-12-29T08:43:50;13.40;99.90
949;DHT22;461;51.436;7.312;2022-12-29T08:46:16;13.30;99.90
949;DHT22;461;51.436;7.312;2022-12-29T08:48:42;13.30;99.90
949;DHT22;461;51.436;7.312;2022-12-29T08:51:08;13.40;99.90
949;DHT22;461;51.436;7.312;2022-12-29T08:53:35;13.50;99.90
949;DHT22;461;51.436;7.312;2022-12-29T08:56:01;13.50;99.90
949;DHT22;461;51.436;7.312;2022-12-29T08:58:28;13.40;99.90
949;DHT22;461;51.436;7.312;2022-12-29T09:00:55;13.40;99.90
949;DHT22;461;51.436;7.312;2022-12-29T09:03:21;13.40;99.90
949;DHT22;461;51.436;7.312;2022-12-29T09:05:49;13.20;99.90
949;DHT22;461;51.436;7.312;2022-12-29T09:10:42;13.20;99.90
949;DHT22;461;51.436;7.312;2022-12-29T09:13:07;12.80;99.90
949;DHT22;461;51.436;7.312;2022-12-29T09:15:33;12.70;99.90
949;DHT22;461;51.436;7.312;2022-12-29T09:17:59;12.60;99.90
949;DHT22;461;51.436;7.312;2022-12-29T09:20:25;12.60;99.90
949;DHT22;461;51.436;7.312;2022-12-29T09:22:50;12.60;99.90
949;DHT22;461;51.436;7.312;2022-12-29T09:25:16;12.60;99.90
949;DHT22;461;51.436;7.312;2022-12-29T09:27:43;12.60;99.90
949;DHT22;461;51.436;7.312;2022-12-29T10:31:28;13.10;99.90
949;DHT22;461;51.436;7.312;2022-12-29T10:34:00;13.70;99.90
949;DHT22;461;51.436;7.312;2022-12-29T10:36:43;13.70;99.90
949;DHT22;461;51.436;7.312;2022-12-29T10:40:11;13.70;99.90
949;DHT22;461;51.436;7.312;2022-12-29T10:42:28;13.80;99.90
949;DHT22;461;51.436;7.312;2022-12-29T10:44:56;13.80;99.90
949;DHT22;461;51.436;7.312;2022-12-29T10:47:28;13.80;99.90
949;DHT22;461;51.436;7.312;2022-12-29T10:49:55;13.90;99.90
949;DHT22;461;51.436;7.312;2022-12-29T10:52:24;14.10;99.90
949;DHT22;461;51.436;7.312;2022-12-29T10:55:02;14.10;99.90
949;DHT22;461;51.436;7.312;2022-12-29T10:57:41;14.20;99.90
949;DHT22;461;51.436;7.312;2022-12-29T11:00:17;14.20;99.90
949;DHT22;461;51.436;7.312;2022-12-29T11:08:00;13.80;99.90
949;DHT22;461;51.436;7.312;2022-12-29T11:10:37;13.60;99.90
949;DHT22;461;51.436;7.312;2022-12-29T11:15:44;13.60;99.90
949;DHT22;461;51.436;7.312;2022-12-29T11:18:40;13.80;99.90
949;DHT22;461;51.436;7.312;2022-12-29T11:21:32;13.70;99.90
949;DHT22;461;51.436;7.312;2022-12-29T11:24:20;13.50;99.90
949;DHT22;461;51.436;7.312;2022-12-29T11:26:46;13.50;99.90
949;DHT22;461;51.436;7.312;2022-12-29T11:29:24;13.50;99.90
949;DHT22;461;51.436;7.312;2022-12-29T11:31:58;13.50;99.90
949;DHT22;461;51.436;7.312;2022-12-29T11:34:35;13.50;99.90
949;DHT22;461;51.436;7.312;2022-12-29T11:37:13;13.40;99.90
949;DHT22;461;51.436;7.312;2022-12-29T11:42:14;13.50;99.90
949;DHT22;461;51.436;7.312;2022-12-29T11:44:44;13.40;99.90
949;DHT22;461;51.436;7.312;2022-12-29T11:47:20;13.50;99.90
949;DHT22;461;51.436;7.312;2022-12-29T11:49:50;13.30;99.90
949;DHT22;461;51.436;7.312;2022-12-29T11:52:22;13.20;99.90
949;DHT22;461;51.436;7.312;2022-12-29T11:54:49;13.40;99.90
949;DHT22;461;51.436;7.312;2022-12-29T11:57:16;13.30;99.90
949;DHT22;461;51.436;7.312;2022-12-29T12:02:32;13.20;99.90
949;DHT22;461;51.436;7.312;2022-12-29T12:11:11;13.30;99.90
949;DHT22;461;51.436;7.312;2022-12-29T12:16:43;13.10;99.90
949;DHT22;461;51.436;7.312;2022-12-29T12:19:30;13.20;99.90
949;DHT22;461;51.436;7.312;2022-12-29T12:27:48;13.30;99.90
949;DHT22;461;51.436;7.312;2022-12-29T12:30:20;13.10;99.90
949;DHT22;461;51.436;7.312;2022-12-29T12:38:54;12.90;99.90
949;DHT22;461;51.436;7.312;2022-12-29T12:44:24;13.00;99.90
949;DHT22;461;51.436;7.312;2022-12-29T12:52:33;12.90;99.90
949;DHT22;461;51.436;7.312;2022-12-29T13:15:35;13.10;99.90
949;DHT22;461;51.436;7.312;2022-12-29T13:18:56;13.00;99.90
949;DHT22;461;51.436;7.312;2022-12-29T13:27:33;13.00;99.90
949;DHT22;461;51.436;7.312;2022-12-29T13:29:34;13.10;99.90
949;DHT22;461;51.436;7.312;2022-12-29T13:32:25;13.10;99.90
949;DHT22;461;51.436;7.312;2022-12-29T13:41:00;13.00;99.90
949;DHT22;461;51.436;7.312;2022-12-29T13:43:29;13.00;99.90
949;DHT22;461;51.436;7.312;2022-12-29T13:46:07;13.00;99.90
949;DHT22;461;51.436;7.312;2022-12-29T13:48:46;12.90;99.90
949;DHT22;461;51.436;7.312;2022-12-29T13:51:13;12.90;99.90
949;DHT22;461;51.436;7.312;2022-12-29T13:56:31;12.90;99.90
949;DHT22;461;51.436;7.312;2022-12-29T13:59:27;13.00;99.90
949;DHT22;461;51.436;7.312;2022-12-29T14:05:01;13.00;99.90
949;DHT22;461;51.436;7.312;2022-12-29T14:07:29;13.00;99.90
949;DHT22;461;51.436;7.312;2022-12-29T14:10:00;13.00;99.90
949;DHT22;461;51.436;7.312;2022-12-29T14:12:44;13.00;99.90
949;DHT22;461;51.436;7.312;2022-12-29T14:17:40;13.10;99.90
949;DHT22;461;51.436;7.312;2022-12-29T14:20:20;13.00;99.90
949;DHT22;461;51.436;7.312;2022-12-29T14:28:35;12.80;99.90
949;DHT22;461;51.436;7.312;2022-12-29T14:31:02;12.70;99.90
949;DHT22;461;51.436;7.312;2022-12-29T14:33:33;12.70;99.90
949;DHT22;461;51.436;7.312;2022-12-29T14:36:19;12.80;99.90
949;DHT22;461;51.436;7.312;2022-12-29T14:38:48;12.80;99.90
949;DHT22;461;51.436;7.312;2022-12-29T14:41:40;12.80;99.90
949;DHT22;461;51.436;7.312;2022-12-29T14:49:22;12.80;99.90
949;DHT22;461;51.436;7.312;2022-12-29T14:51:54;12.80;99.90
949;DHT22;461;51.436;7.312;2022-12-29T14:54:41;12.70;99.90
949;DHT22;461;51.436;7.312;2022-12-29T15:15:27;12.60;99.90
949;DHT22;461;51.436;7.312;2022-12-29T15:17:55;12.60;99.90
949;DHT22;461;51.436;7.312;2022-12-29T15:20:25;12.60;99.90
949;DHT22;461;51.436;7.312;2022-12-29T15:23:09;12.60;99.90
949;DHT22;461;51.436;7.312;2022-12-29T15:25:36;12.60;99.90
949;DHT22;461;51.436;7.312;2022-12-29T15:28:06;12.60;99.90
949;DHT22;461;51.436;7.312;2022-12-29T15:30:32;12.60;99.90
949;DHT22;461;51.436;7.312;2022-12-29T15:32:58;12.60;99.90
949;DHT22;461;51.436;7.312;2022-12-29T15:35:36;12.50;99.90
949;DHT22;461;51.436;7.312;2022-12-29T15:38:25;12.50;99.90
949;DHT22;461;51.436;7.312;2022-12-29T15:40:54;12.50;99.90
949;DHT22;461;51.436;7.312;2022-12-29T15:45:50;12.50;99.90
949;DHT22;461;51.436;7.312;2022-12-29T15:48:19;12.40;99.90
949;DHT22;461;51.436;7.312;2022-12-29T15:50:45;12.50;99.90
949;DHT22;461;51.436;7.312;2022-12-29T15:53:19;12.40;99.90
949;DHT22;461;51.436;7.312;2022-12-29T15:55:50;12.40;99.90
949;DHT22;461;51.436;7.312;2022-12-29T15:58:29;12.40;99.90
949;DHT22;461;51.436;7.312;2022-12-29T16:01:00;12.40;99.90
949;DHT22;461;51.436;7.312;2022-12-29T16:03:33;12.30;99.90
949;DHT22;461;51.436;7.312;2022-12-29T16:09:14;12.60;99.90
949;DHT22;461;51.436;7.312;2022-12-29T16:11:52;12.50;99.90
949;DHT22;461;51.436;7.312;2022-12-29T16:14:37;12.50;99.90
949;DHT22;461;51.436;7.312;2022-12-29T16:17:04;12.40;99.90
949;DHT22;461;51.436;7.312;2022-12-29T16:19:38;12.30;99.90
949;DHT22;461;51.436;7.312;2022-12-29T16:22:17;12.30;99.90
949;DHT22;461;51.436;7.312;2022-12-29T16:24:45;12.40;99.90
949;DHT22;461;51.436;7.312;2022-12-29T16:27:38;12.40;99.90
949;DHT22;461;51.436;7.312;2022-12-29T16:30:37;12.40;99.90
949;DHT22;461;51.436;7.312;2022-12-29T16:33:05;12.40;99.90
949;DHT22;461;51.436;7.312;2022-12-29T16:38:19;12.30;99.90
949;DHT22;461;51.436;7.312;2022-12-29T16:41:00;12.20;99.90
949;DHT22;461;51.436;7.312;2022-12-29T16:43:31;12.30;99.90
949;DHT22;461;51.436;7.312;2022-12-29T16:48:27;12.20;99.90
949;DHT22;461;51.436;7.312;2022-12-29T16:51:16;12.20;99.90
949;DHT22;461;51.436;7.312;2022-12-29T16:53:53;12.10;99.90
949;DHT22;461;51.436;7.312;2022-12-29T16:56:22;12.20;99.90
949;DHT22;461;51.436;7.312;2022-12-29T16:59:00;12.20;99.90
949;DHT22;461;51.436;7.312;2022-12-29T17:01:27;12.20;99.90
949;DHT22;461;51.436;7.312;2022-12-29T17:07:27;12.20;99.90
949;DHT22;461;51.436;7.312;2022-12-29T17:10:21;12.10;99.90
949;DHT22;461;51.436;7.312;2022-12-29T17:13:07;12.10;99.90
949;DHT22;461;51.436;7.312;2022-12-29T17:15:33;12.00;99.90
949;DHT22;461;51.436;7.312;2022-12-29T17:18:00;12.00;99.90
949;DHT22;461;51.436;7.312;2022-12-29T17:20:27;12.00;99.90
949;DHT22;461;51.436;7.312;2022-12-29T17:22:54;12.10;99.90
949;DHT22;461;51.436;7.312;2022-12-29T17:25:32;12.00;99.90
949;DHT22;461;51.436;7.312;2022-12-29T17:28:12;12.00;99.90
949;DHT22;461;51.436;7.312;2022-12-29T17:30:41;11.90;99.90
949;DHT22;461;51.436;7.312;2022-12-29T17:33:12;11.90;99.90
949;DHT22;461;51.436;7.312;2022-12-29T17:35:39;11.90;99.90
949;DHT22;461;51.436;7.312;2022-12-29T17:38:33;12.00;99.90
949;DHT22;461;51.436;7.312;2022-12-29T17:41:00;12.00;99.90
949;DHT22;461;51.436;7.312;2022-12-29T17:43:26;12.00;99.90
949;DHT22;461;51.436;7.312;2022-12-29T17:45:56;12.00;99.90
949;DHT22;461;51.436;7.312;2022-12-29T17:48:23;12.00;99.90
949;DHT22;461;51.436;7.312;2022-12-29T17:50:51;12.00;99.90
949;DHT22;461;51.436;7.312;2022-12-29T17:53:23;12.00;99.90
949;DHT22;461;51.436;7.312;2022-12-29T17:55:51;12.00;99.90
949;DHT22;461;51.436;7.312;2022-12-29T17:58:19;12.00;99.90
949;DHT22;461;51.436;7.312;2022-12-29T18:00:47;11.90;99.90
949;DHT22;461;51.436;7.312;2022-12-29T18:03:18;11.80;99.90
949;DHT22;461;51.436;7.312;2022-12-29T18:05:48;11.80;99.90
949;DHT22;461;51.436;7.312;2022-12-29T18:08:26;11.60;99.90
949;DHT22;461;51.436;7.312;2022-12-29T18:36:11;11.20;99.90
949;DHT22;461;51.436;7.312;2022-12-29T18:38:50;10.70;99.90
949;DHT22;461;51.436;7.312;2022-12-29T18:41:22;10.60;99.90
949;DHT22;461;51.436;7.312;2022-12-29T18:43:48;10.50;99.90
949;DHT22;461;51.436;7.312;2022-12-29T18:46:19;10.40;99.90
949;DHT22;461;51.436;7.312;2022-12-29T18:48:48;10.40;99.90
949;DHT22;461;51.436;7.312;2022-12-29T18:51:18;10.20;99.90
949;DHT22;461;51.436;7.312;2022-12-29T18:53:44;10.20;99.90
949;DHT22;461;51.436;7.312;2022-12-29T18:56:10;10.20;99.90
949;DHT22;461;51.436;7.312;2022-12-29T18:58:36;10.20;99.90
949;DHT22;461;51.436;7.312;2022-12-29T19:01:05;10.10;99.90
949;DHT22;461;51.436;7.312;2022-12-29T19:03:32;10.00;99.90
949;DHT22;461;51.436;7.312;2022-12-29T19:05:58;10.00;99.90
949;DHT22;461;51.436;7.312;2022-12-29T19:08:25;10.10;99.90
949;DHT22;461;51.436;7.312;2022-12-29T19:10:54;10.20;99.90
949;DHT22;461;51.436;7.312;2022-12-29T19:13:25;10.10;99.90
949;DHT22;461;51.436;7.312;2022-12-29T19:15:55;10.10;99.90
949;DHT22;461;51.436;7.312;2022-12-29T19:18:23;10.10;99.90
949;DHT22;461;51.436;7.312;2022-12-29T19:20:52;10.20;99.90
949;DHT22;461;51.436;7.312;2022-12-29T19:23:21;10.30;99.90
949;DHT22;461;51.436;7.312;2022-12-29T19:25:48;10.30;99.90
949;DHT22;461;51.436;7.312;2022-12-29T19:28:21;10.30;99.90
949;DHT22;461;51.436;7.312;2022-12-29T19:30:47;10.30;99.90
949;DHT22;461;51.436;7.312;2022-12-29T19:33:14;10.30;99.90
949;DHT22;461;51.436;7.312;2022-12-29T19:35:44;10.30;99.90
949;DHT22;461;51.436;7.312;2022-12-29T19:38:11;10.20;99.90
949;DHT22;461;51.436;7.312;2022-12-29T19:40:44;10.20;99.90
949;DHT22;461;51.436;7.312;2022-12-29T19:43:14;10.20;99.90
949;DHT22;461;51.436;7.312;2022-12-29T19:45:41;10.20;99.90
949;DHT22;461;51.436;7.312;2022-12-29T19:48:16;10.30;99.90
949;DHT22;461;51.436;7.312;2022-12-29T19:50:55;10.40;99.90
949;DHT22;461;51.436;7.312;2022-12-29T19:53:44;10.40;99.90
949;DHT22;461;51.436;7.312;2022-12-29T19:56:14;10.30;99.90
949;DHT22;461;51.436;7.312;2022-12-29T19:59:03;10.30;99.90
949;DHT22;461;51.436;7.312;2022-12-29T20:01:37;10.20;99.90
949;DHT22;461;51.436;7.312;2022-12-29T20:04:41;10.30;99.90
949;DHT22;461;51.436;7.312;2022-12-29T20:25:27;10.20;99.90
949;DHT22;461;51.436;7.312;2022-12-29T20:27:53;10.30;99.90
949;DHT22;461;51.436;7.312;2022-12-29T20:30:19;10.30;99.90
949;DHT22;461;51.436;7.312;2022-12-29T20:32:45;10.30;99.90
949;DHT22;461;51.436;7.312;2022-12-29T20:35:11;10.20;99.90
949;DHT22;461;51.436;7.312;2022-12-29T20:37:44;10.10;99.90
949;DHT22;461;51.436;7.312;2022-12-29T20:40:12;10.10;99.90
949;DHT22;461;51.436;7.312;2022-12-29T20:42:49;10.10;99.90
949;DHT22;461;51.436;7.312;2022-12-29T20:45:27;10.10;99.90
949;DHT22;461;51.436;7.312;2022-12-29T20:47:53;10.10;99.90
949;DHT22;461;51.436;7.312;2022-12-29T20:50:19;10.00;99.90
949;DHT22;461;51.436;7.312;2022-12-29T20:52:48;10.10;99.90
949;DHT22;461;51.436;7.312;2022-12-29T20:55:15;10.20;99.90
949;DHT22;461;51.436;7.312;2022-12-29T20:57:42;10.20;99.90
949;DHT22;461;51.436;7.312;2022-12-29T21:00:08;10.20;99.90
949;DHT22;461;51.436;7.312;2022-12-29T21:02:41;10.20;99.90
949;DHT22;461;51.436;7.312;2022-12-29T21:05:08;10.10;99.90
949;DHT22;461;51.436;7.312;2022-12-29T21:07:41;10.10;99.90
949;DHT22;461;51.436;7.312;2022-12-29T21:10:19;10.10;99.90
949;DHT22;461;51.436;7.312;2022-12-29T21:12:49;10.10;99.90
949;DHT22;461;51.436;7.312;2022-12-29T21:15:22;10.00;99.90
949;DHT22;461;51.436;7.312;2022-12-29T21:17:51;10.00;99.90
949;DHT22;461;51.436;7.312;2022-12-29T21:20:21;10.00;99.90
949;DHT22;461;51.436;7.312;2022-12-29T21:22:55;9.90;99.90
949;DHT22;461;51.436;7.312;2022-12-29T21:25:30;9.80;99.90
949;DHT22;461;51.436;7.312;2022-12-29T21:28:05;9.90;99.90
949;DHT22;461;51.436;7.312;2022-12-29T21:30:32;10.00;99.90
949;DHT22;461;51.436;7.312;2022-12-29T21:32:59;10.10;99.90
949;DHT22;461;51.436;7.312;2022-12-29T21:35:25;10.00;99.90
949;DHT22;461;51.436;7.312;2022-12-29T21:37:50;10.10;99.90
949;DHT22;461;51.436;7.312;2022-12-29T21:40:16;10.00;99.90
949;DHT22;461;51.436;7.312;2022-12-29T21:42:56;9.90;99.90
949;DHT22;461;51.436;7.312;2022-12-29T21:45:38;9.90;99.90
949;DHT22;461;51.436;7.312;2022-12-29T21:48:05;9.90;99.90
949;DHT22;461;51.436;7.312;2022-12-29T21:51:12;9.90;99.90
949;DHT22;461;51.436;7.312;2022-12-29T21:57:10;9.90;99.90
949;DHT22;461;51.436;7.312;2022-12-29T21:59:36;9.90;99.90
949;DHT22;461;51.436;7.312;2022-12-29T22:02:25;9.80;99.90
949;DHT22;461;51.436;7.312;2022-12-29T22:05:39;9.90;99.90
949;DHT22;461;51.436;7.312;2022-12-29T22:08:40;9.90;99.90
949;DHT22;461;51.436;7.312;2022-12-29T22:11:56;9.90;99.90